Portada
METAR-TAF:

METAR-TAF

Aeroports :

Shawano, Wisconsin, Estats Units d'Amèrica

latitud: 44-47-14N, longitud: 088-33-36W, altitud: 248 m

Observació

L'informe es va fer fa 18 minuts, a les 18:35 UTC
Vent 4 kt del Sud
Temperatura 22°C
Humitat 43%
Pressió 1021 hPa
Visibilitat: 16.1 km
Cel clar

METAR: KEZS 231835Z AUTO 19004KT 10SM CLR 22/09 A3015 RMK AO2 T02180094

Hora: 13:53 (18:53 UTC)


TAF: manca

Observacions i pronòstics meteorològics de més de 4000 aeroports (METAR i TAF).

Les estacions disponibles són els punts grocs i vermells al mapa.

Posi el ratolí al punt desitjat per veure el nom de l'estació.

Feu clic per veure les observacions i els pronòstics meteorològics.

Per canviar el mapa: feu clic els botons verds amb una creu de color negre per apropar; al botó verd amb un guió per allunyar la imatge; o en les fletxes verdes per a mapes adjacents.


METAR-TAF: